sensor_id;sensor_type;location;lat;lon;timestamp;pressure;altitude;pressure_sealevel;temperature
12007;BMP180;6062;47.294;12.182;2022-12-15T00:01:21;78722.00;;;5.50
12007;BMP180;6062;47.294;12.182;2022-12-15T00:04:06;78724.00;;;5.50
12007;BMP180;6062;47.294;12.182;2022-12-15T00:06:50;78728.00;;;5.50
12007;BMP180;6062;47.294;12.182;2022-12-15T00:09:34;78726.00;;;5.50
12007;BMP180;6062;47.294;12.182;2022-12-15T00:12:18;78736.00;;;5.50
12007;BMP180;6062;47.294;12.182;2022-12-15T00:15:03;78738.00;;;5.50
12007;BMP180;6062;47.294;12.182;2022-12-15T00:17:47;78734.00;;;5.50
12007;BMP180;6062;47.294;12.182;2022-12-15T00:20:31;78730.00;;;5.50
12007;BMP180;6062;47.294;12.182;2022-12-15T00:23:15;78733.00;;;5.50
12007;BMP180;6062;47.294;12.182;2022-12-15T00:25:59;78727.00;;;5.50
12007;BMP180;6062;47.294;12.182;2022-12-15T00:28:43;78739.00;;;5.50
12007;BMP180;6062;47.294;12.182;2022-12-15T00:31:27;78739.00;;;5.50
12007;BMP180;6062;47.294;12.182;2022-12-15T00:34:11;78741.00;;;5.40
12007;BMP180;6062;47.294;12.182;2022-12-15T00:36:56;78751.00;;;5.40
12007;BMP180;6062;47.294;12.182;2022-12-15T00:39:40;78755.00;;;5.40
12007;BMP180;6062;47.294;12.182;2022-12-15T00:42:07;78757.00;;;5.40
12007;BMP180;6062;47.294;12.182;2022-12-15T00:44:33;78745.00;;;5.40
12007;BMP180;6062;47.294;12.182;2022-12-15T00:46:59;78747.00;;;5.40
12007;BMP180;6062;47.294;12.182;2022-12-15T00:49:28;78753.00;;;5.40
12007;BMP180;6062;47.294;12.182;2022-12-15T00:52:15;78748.00;;;5.50
12007;BMP180;6062;47.294;12.182;2022-12-15T00:54:59;78744.00;;;5.50
12007;BMP180;6062;47.294;12.182;2022-12-15T00:57:43;78756.00;;;5.50
12007;BMP180;6062;47.294;12.182;2022-12-15T01:00:28;78743.00;;;5.60
12007;BMP180;6062;47.294;12.182;2022-12-15T01:03:17;78757.00;;;5.60
12007;BMP180;6062;47.294;12.182;2022-12-15T01:06:20;78751.00;;;5.60
12007;BMP180;6062;47.294;12.182;2022-12-15T01:09:07;78760.00;;;5.70
12007;BMP180;6062;47.294;12.182;2022-12-15T01:11:52;78760.00;;;5.60
12007;BMP180;6062;47.294;12.182;2022-12-15T01:14:36;78758.00;;;5.70
12007;BMP180;6062;47.294;12.182;2022-12-15T01:17:20;78765.00;;;5.70
12007;BMP180;6062;47.294;12.182;2022-12-15T01:20:06;78763.00;;;5.70
12007;BMP180;6062;47.294;12.182;2022-12-15T01:22:54;78767.00;;;5.70
12007;BMP180;6062;47.294;12.182;2022-12-15T01:25:23;78774.00;;;5.70
12007;BMP180;6062;47.294;12.182;2022-12-15T01:27:50;78767.00;;;5.80
12007;BMP180;6062;47.294;12.182;2022-12-15T01:30:21;78771.00;;;5.80
12007;BMP180;6062;47.294;12.182;2022-12-15T01:32:47;78779.00;;;5.90
12007;BMP180;6062;47.294;12.182;2022-12-15T01:35:14;78779.00;;;5.90
12007;BMP180;6062;47.294;12.182;2022-12-15T01:37:39;78782.00;;;6.00
12007;BMP180;6062;47.294;12.182;2022-12-15T01:40:08;78782.00;;;6.00
12007;BMP180;6062;47.294;12.182;2022-12-15T01:42:54;78779.00;;;6.10
12007;BMP180;6062;47.294;12.182;2022-12-15T01:47:57;78781.00;;;6.20
12007;BMP180;6062;47.294;12.182;2022-12-15T01:50:26;78784.00;;;6.20
12007;BMP180;6062;47.294;12.182;2022-12-15T01:52:54;78785.00;;;6.30
12007;BMP180;6062;47.294;12.182;2022-12-15T01:55:24;78789.00;;;6.30
12007;BMP180;6062;47.294;12.182;2022-12-15T01:57:59;78789.00;;;6.40
12007;BMP180;6062;47.294;12.182;2022-12-15T02:00:26;78790.00;;;6.40
12007;BMP180;6062;47.294;12.182;2022-12-15T02:02:53;78775.00;;;6.40
12007;BMP180;6062;47.294;12.182;2022-12-15T02:05:20;78789.00;;;6.50
12007;BMP180;6062;47.294;12.182;2022-12-15T02:07:46;78802.00;;;6.50
12007;BMP180;6062;47.294;12.182;2022-12-15T02:10:12;78788.00;;;6.50
12007;BMP180;6062;47.294;12.182;2022-12-15T02:13:14;78798.00;;;6.50
12007;BMP180;6062;47.294;12.182;2022-12-15T02:16:01;78787.00;;;6.50
12007;BMP180;6062;47.294;12.182;2022-12-15T02:18:44;78790.00;;;6.40
12007;BMP180;6062;47.294;12.182;2022-12-15T02:21:19;78790.00;;;6.40
12007;BMP180;6062;47.294;12.182;2022-12-15T02:29:39;78794.00;;;6.60
12007;BMP180;6062;47.294;12.182;2022-12-15T02:32:28;78792.00;;;6.60
12007;BMP180;6062;47.294;12.182;2022-12-15T02:35:08;78809.00;;;6.60
12007;BMP180;6062;47.294;12.182;2022-12-15T02:37:40;78809.00;;;6.70
12007;BMP180;6062;47.294;12.182;2022-12-15T02:40:09;78806.00;;;6.70
12007;BMP180;6062;47.294;12.182;2022-12-15T02:42:42;78814.00;;;6.80
12007;BMP180;6062;47.294;12.182;2022-12-15T02:45:13;78810.00;;;6.80
12007;BMP180;6062;47.294;12.182;2022-12-15T02:48:09;78812.00;;;6.90
12007;BMP180;6062;47.294;12.182;2022-12-15T02:54:33;78809.00;;;6.90
12007;BMP180;6062;47.294;12.182;2022-12-15T02:57:07;78820.00;;;6.90
12007;BMP180;6062;47.294;12.182;2022-12-15T03:02:09;78815.00;;;7.00
12007;BMP180;6062;47.294;12.182;2022-12-15T03:04:37;78824.00;;;7.00
12007;BMP180;6062;47.294;12.182;2022-12-15T03:07:08;78824.00;;;7.10
12007;BMP180;6062;47.294;12.182;2022-12-15T03:09:34;78814.00;;;7.10
12007;BMP180;6062;47.294;12.182;2022-12-15T03:12:00;78812.00;;;7.10
12007;BMP180;6062;47.294;12.182;2022-12-15T03:14:26;78824.00;;;7.10
12007;BMP180;6062;47.294;12.182;2022-12-15T03:16:53;78821.00;;;7.10
12007;BMP180;6062;47.294;12.182;2022-12-15T03:19:19;78826.00;;;7.10
12007;BMP180;6062;47.294;12.182;2022-12-15T03:21:45;78813.00;;;7.10
12007;BMP180;6062;47.294;12.182;2022-12-15T03:24:10;78819.00;;;7.10
12007;BMP180;6062;47.294;12.182;2022-12-15T03:26:36;78827.00;;;7.10
12007;BMP180;6062;47.294;12.182;2022-12-15T03:29:02;78830.00;;;7.10
12007;BMP180;6062;47.294;12.182;2022-12-15T03:31:28;78827.00;;;7.20
12007;BMP180;6062;47.294;12.182;2022-12-15T03:33:53;78825.00;;;7.20
12007;BMP180;6062;47.294;12.182;2022-12-15T03:36:20;78817.00;;;7.20
12007;BMP180;6062;47.294;12.182;2022-12-15T03:38:48;78823.00;;;7.20
12007;BMP180;6062;47.294;12.182;2022-12-15T03:41:13;78835.00;;;7.20
12007;BMP180;6062;47.294;12.182;2022-12-15T03:43:39;78837.00;;;7.20
12007;BMP180;6062;47.294;12.182;2022-12-15T03:46:05;78848.00;;;7.10
12007;BMP180;6062;47.294;12.182;2022-12-15T03:48:30;78849.00;;;7.00
12007;BMP180;6062;47.294;12.182;2022-12-15T03:50:56;78853.00;;;6.90
12007;BMP180;6062;47.294;12.182;2022-12-15T03:53:22;78854.00;;;6.80
12007;BMP180;6062;47.294;12.182;2022-12-15T03:55:47;78850.00;;;6.70
12007;BMP180;6062;47.294;12.182;2022-12-15T03:58:13;78847.00;;;6.70
12007;BMP180;6062;47.294;12.182;2022-12-15T04:00:38;78851.00;;;6.60
12007;BMP180;6062;47.294;12.182;2022-12-15T04:03:04;78856.00;;;6.60
12007;BMP180;6062;47.294;12.182;2022-12-15T04:05:33;78859.00;;;6.60
12007;BMP180;6062;47.294;12.182;2022-12-15T04:08:00;78853.00;;;6.50
12007;BMP180;6062;47.294;12.182;2022-12-15T04:10:31;78865.00;;;6.50
12007;BMP180;6062;47.294;12.182;2022-12-15T04:13:06;78862.00;;;6.50
12007;BMP180;6062;47.294;12.182;2022-12-15T04:15:34;78870.00;;;6.50
12007;BMP180;6062;47.294;12.182;2022-12-15T04:18:02;78870.00;;;6.50
12007;BMP180;6062;47.294;12.182;2022-12-15T04:20:29;78873.00;;;6.40
12007;BMP180;6062;47.294;12.182;2022-12-15T04:22:55;78869.00;;;6.40
12007;BMP180;6062;47.294;12.182;2022-12-15T04:25:23;78863.00;;;6.40
12007;BMP180;6062;47.294;12.182;2022-12-15T04:28:10;78866.00;;;6.40
12007;BMP180;6062;47.294;12.182;2022-12-15T04:33:50;78868.00;;;6.50
12007;BMP180;6062;47.294;12.182;2022-12-15T04:36:37;78871.00;;;6.50
12007;BMP180;6062;47.294;12.182;2022-12-15T04:39:23;78879.00;;;6.50
12007;BMP180;6062;47.294;12.182;2022-12-15T04:42:08;78876.00;;;6.50
12007;BMP180;6062;47.294;12.182;2022-12-15T04:44:57;78865.00;;;6.40
12007;BMP180;6062;47.294;12.182;2022-12-15T04:47:43;78868.00;;;6.20
12007;BMP180;6062;47.294;12.182;2022-12-15T04:50:27;78865.00;;;6.10
12007;BMP180;6062;47.294;12.182;2022-12-15T04:53:15;78871.00;;;6.00
12007;BMP180;6062;47.294;12.182;2022-12-15T04:56:01;78884.00;;;5.90
12007;BMP180;6062;47.294;12.182;2022-12-15T04:58:46;78885.00;;;5.60
12007;BMP180;6062;47.294;12.182;2022-12-15T05:01:31;78890.00;;;5.50
12007;BMP180;6062;47.294;12.182;2022-12-15T05:04:15;78895.00;;;5.30
12007;BMP180;6062;47.294;12.182;2022-12-15T05:07:00;78902.00;;;5.10
12007;BMP180;6062;47.294;12.182;2022-12-15T05:09:44;78897.00;;;4.90
12007;BMP180;6062;47.294;12.182;2022-12-15T05:12:28;78899.00;;;4.70
12007;BMP180;6062;47.294;12.182;2022-12-15T05:15:12;78904.00;;;4.50
12007;BMP180;6062;47.294;12.182;2022-12-15T05:17:57;78900.00;;;4.40
12007;BMP180;6062;47.294;12.182;2022-12-15T05:20:41;78896.00;;;4.10
12007;BMP180;6062;47.294;12.182;2022-12-15T05:23:25;78892.00;;;3.90
12007;BMP180;6062;47.294;12.182;2022-12-15T05:26:09;78901.00;;;3.80
12007;BMP180;6062;47.294;12.182;2022-12-15T05:28:53;78902.00;;;3.70
12007;BMP180;6062;47.294;12.182;2022-12-15T05:31:37;78901.00;;;3.50
12007;BMP180;6062;47.294;12.182;2022-12-15T05:34:26;78901.00;;;3.40
12007;BMP180;6062;47.294;12.182;2022-12-15T05:36:54;78913.00;;;3.30
12007;BMP180;6062;47.294;12.182;2022-12-15T05:39:23;78908.00;;;3.30
12007;BMP180;6062;47.294;12.182;2022-12-15T05:41:50;78914.00;;;3.20
12007;BMP180;6062;47.294;12.182;2022-12-15T05:44:16;78917.00;;;3.20
12007;BMP180;6062;47.294;12.182;2022-12-15T05:46:42;78917.00;;;3.20
12007;BMP180;6062;47.294;12.182;2022-12-15T05:49:12;78934.00;;;3.10
12007;BMP180;6062;47.294;12.182;2022-12-15T05:51:41;78936.00;;;3.10
12007;BMP180;6062;47.294;12.182;2022-12-15T05:54:08;78936.00;;;3.00
12007;BMP180;6062;47.294;12.182;2022-12-15T05:56:35;78934.00;;;2.90
12007;BMP180;6062;47.294;12.182;2022-12-15T05:59:01;78923.00;;;2.80
12007;BMP180;6062;47.294;12.182;2022-12-15T06:01:27;78922.00;;;2.70
12007;BMP180;6062;47.294;12.182;2022-12-15T06:03:55;78924.00;;;2.60
12007;BMP180;6062;47.294;12.182;2022-12-15T06:06:21;78921.00;;;2.50
12007;BMP180;6062;47.294;12.182;2022-12-15T06:08:46;78926.00;;;2.40
12007;BMP180;6062;47.294;12.182;2022-12-15T06:11:14;78916.00;;;2.30
12007;BMP180;6062;47.294;12.182;2022-12-15T06:13:41;78918.00;;;2.30
12007;BMP180;6062;47.294;12.182;2022-12-15T06:16:19;78916.00;;;2.30
12007;BMP180;6062;47.294;12.182;2022-12-15T06:18:55;78923.00;;;2.30
12007;BMP180;6062;47.294;12.182;2022-12-15T06:21:31;78932.00;;;2.30
12007;BMP180;6062;47.294;12.182;2022-12-15T06:23:57;78930.00;;;2.30
12007;BMP180;6062;47.294;12.182;2022-12-15T06:26:30;78939.00;;;2.40
12007;BMP180;6062;47.294;12.182;2022-12-15T06:28:58;78937.00;;;2.40
12007;BMP180;6062;47.294;12.182;2022-12-15T06:31:28;78941.00;;;2.50
12007;BMP180;6062;47.294;12.182;2022-12-15T06:33:55;78928.00;;;2.50
12007;BMP180;6062;47.294;12.182;2022-12-15T06:36:21;78938.00;;;2.60
12007;BMP180;6062;47.294;12.182;2022-12-15T06:38:51;78938.00;;;2.70
12007;BMP180;6062;47.294;12.182;2022-12-15T06:41:19;78942.00;;;2.70
12007;BMP180;6062;47.294;12.182;2022-12-15T06:43:53;78941.00;;;2.80
12007;BMP180;6062;47.294;12.182;2022-12-15T06:46:23;78947.00;;;2.80
12007;BMP180;6062;47.294;12.182;2022-12-15T06:48:49;78946.00;;;2.80
12007;BMP180;6062;47.294;12.182;2022-12-15T06:51:16;78947.00;;;2.80
12007;BMP180;6062;47.294;12.182;2022-12-15T06:53:43;78951.00;;;2.80
12007;BMP180;6062;47.294;12.182;2022-12-15T06:56:24;78951.00;;;2.80
12007;BMP180;6062;47.294;12.182;2022-12-15T06:58:52;78964.00;;;2.80
12007;BMP180;6062;47.294;12.182;2022-12-15T07:01:21;78958.00;;;2.80
12007;BMP180;6062;47.294;12.182;2022-12-15T07:03:47;78953.00;;;2.80
12007;BMP180;6062;47.294;12.182;2022-12-15T07:06:15;78951.00;;;2.80
12007;BMP180;6062;47.294;12.182;2022-12-15T07:08:42;78946.00;;;2.80
12007;BMP180;6062;47.294;12.182;2022-12-15T07:11:11;78957.00;;;2.70
12007;BMP180;6062;47.294;12.182;2022-12-15T07:13:38;78966.00;;;2.60
12007;BMP180;6062;47.294;12.182;2022-12-15T07:16:06;78969.00;;;2.60
12007;BMP180;6062;47.294;12.182;2022-12-15T07:18:32;78961.00;;;2.50
12007;BMP180;6062;47.294;12.182;2022-12-15T07:21:03;78963.00;;;2.50
12007;BMP180;6062;47.294;12.182;2022-12-15T07:23:30;78970.00;;;2.50
12007;BMP180;6062;47.294;12.182;2022-12-15T07:25:56;78974.00;;;2.60
12007;BMP180;6062;47.294;12.182;2022-12-15T07:28:22;78976.00;;;2.70
12007;BMP180;6062;47.294;12.182;2022-12-15T07:30:47;78977.00;;;2.80
12007;BMP180;6062;47.294;12.182;2022-12-15T07:33:13;78976.00;;;2.90
12007;BMP180;6062;47.294;12.182;2022-12-15T07:35:40;78991.00;;;3.00
12007;BMP180;6062;47.294;12.182;2022-12-15T07:38:07;78993.00;;;3.00
12007;BMP180;6062;47.294;12.182;2022-12-15T07:40:33;78985.00;;;3.10
12007;BMP180;6062;47.294;12.182;2022-12-15T07:42:59;79001.00;;;3.20
12007;BMP180;6062;47.294;12.182;2022-12-15T07:45:25;78993.00;;;3.30
12007;BMP180;6062;47.294;12.182;2022-12-15T07:47:51;78994.00;;;3.40
12007;BMP180;6062;47.294;12.182;2022-12-15T07:50:17;78991.00;;;3.60
12007;BMP180;6062;47.294;12.182;2022-12-15T07:52:44;78990.00;;;3.70
12007;BMP180;6062;47.294;12.182;2022-12-15T07:55:10;78991.00;;;3.90
12007;BMP180;6062;47.294;12.182;2022-12-15T07:57:36;78982.00;;;4.10
12007;BMP180;6062;47.294;12.182;2022-12-15T08:00:03;78987.00;;;4.30
12007;BMP180;6062;47.294;12.182;2022-12-15T08:02:30;78975.00;;;4.40
12007;BMP180;6062;47.294;12.182;2022-12-15T08:04:55;78987.00;;;4.60
12007;BMP180;6062;47.294;12.182;2022-12-15T08:07:21;78983.00;;;4.80
12007;BMP180;6062;47.294;12.182;2022-12-15T08:09:48;78984.00;;;5.10
12007;BMP180;6062;47.294;12.182;2022-12-15T08:12:13;78984.00;;;5.40
12007;BMP180;6062;47.294;12.182;2022-12-15T08:14:41;78980.00;;;5.70
12007;BMP180;6062;47.294;12.182;2022-12-15T08:17:07;78982.00;;;6.10
12007;BMP180;6062;47.294;12.182;2022-12-15T08:19:32;78996.00;;;6.50
12007;BMP180;6062;47.294;12.182;2022-12-15T08:21:58;78998.00;;;6.90
12007;BMP180;6062;47.294;12.182;2022-12-15T08:24:24;79004.00;;;7.30
12007;BMP180;6062;47.294;12.182;2022-12-15T08:26:49;79013.00;;;7.70
12007;BMP180;6062;47.294;12.182;2022-12-15T08:29:15;79018.00;;;8.10
12007;BMP180;6062;47.294;12.182;2022-12-15T08:31:41;79017.00;;;8.40
12007;BMP180;6062;47.294;12.182;2022-12-15T08:34:06;79018.00;;;8.70
12007;BMP180;6062;47.294;12.182;2022-12-15T08:36:33;79024.00;;;9.00
12007;BMP180;6062;47.294;12.182;2022-12-15T08:39:00;79040.00;;;9.20
12007;BMP180;6062;47.294;12.182;2022-12-15T08:41:29;79041.00;;;9.50
12007;BMP180;6062;47.294;12.182;2022-12-15T08:43:56;79034.00;;;9.70
12007;BMP180;6062;47.294;12.182;2022-12-15T08:46:29;79032.00;;;9.90
12007;BMP180;6062;47.294;12.182;2022-12-15T08:48:56;79034.00;;;10.10
12007;BMP180;6062;47.294;12.182;2022-12-15T08:51:24;79027.00;;;10.20
12007;BMP180;6062;47.294;12.182;2022-12-15T08:53:51;79028.00;;;10.40
12007;BMP180;6062;47.294;12.182;2022-12-15T08:56:20;79031.00;;;10.50
12007;BMP180;6062;47.294;12.182;2022-12-15T08:58:48;79038.00;;;10.60
12007;BMP180;6062;47.294;12.182;2022-12-15T09:01:20;79044.00;;;10.70
12007;BMP180;6062;47.294;12.182;2022-12-15T09:03:47;79048.00;;;10.80
12007;BMP180;6062;47.294;12.182;2022-12-15T09:06:21;79048.00;;;10.90
12007;BMP180;6062;47.294;12.182;2022-12-15T09:08:47;79054.00;;;11.00
12007;BMP180;6062;47.294;12.182;2022-12-15T09:11:13;79057.00;;;11.20
12007;BMP180;6062;47.294;12.182;2022-12-15T09:13:38;79058.00;;;11.30
12007;BMP180;6062;47.294;12.182;2022-12-15T09:16:12;79062.00;;;11.40
12007;BMP180;6062;47.294;12.182;2022-12-15T09:18:42;79057.00;;;11.50
12007;BMP180;6062;47.294;12.182;2022-12-15T09:21:10;79062.00;;;11.50
12007;BMP180;6062;47.294;12.182;2022-12-15T09:23:36;79062.00;;;11.60
12007;BMP180;6062;47.294;12.182;2022-12-15T09:26:09;79067.00;;;11.70
12007;BMP180;6062;47.294;12.182;2022-12-15T09:28:36;79066.00;;;11.70
12007;BMP180;6062;47.294;12.182;2022-12-15T09:31:15;79052.00;;;11.80
12007;BMP180;6062;47.294;12.182;2022-12-15T09:33:42;79054.00;;;11.90
12007;BMP180;6062;47.294;12.182;2022-12-15T09:36:10;79062.00;;;12.00
12007;BMP180;6062;47.294;12.182;2022-12-15T09:38:39;79050.00;;;12.00
12007;BMP180;6062;47.294;12.182;2022-12-15T09:46:43;79047.00;;;12.20
12007;BMP180;6062;47.294;12.182;2022-12-15T09:49:41;79039.00;;;12.20
12007;BMP180;6062;47.294;12.182;2022-12-15T09:52:15;79033.00;;;12.20
12007;BMP180;6062;47.294;12.182;2022-12-15T09:54:43;79044.00;;;12.30
12007;BMP180;6062;47.294;12.182;2022-12-15T10:00:16;79025.00;;;12.30
12007;BMP180;6062;47.294;12.182;2022-12-15T10:08:52;79027.00;;;12.40
12007;BMP180;6062;47.294;12.182;2022-12-15T10:14:39;79013.00;;;12.50
12007;BMP180;6062;47.294;12.182;2022-12-15T10:17:48;79028.00;;;12.60
12007;BMP180;6062;47.294;12.182;2022-12-15T10:20:26;79024.00;;;12.70
12007;BMP180;6062;47.294;12.182;2022-12-15T10:22:55;79024.00;;;12.70
12007;BMP180;6062;47.294;12.182;2022-12-15T10:25:30;79019.00;;;12.80
12007;BMP180;6062;47.294;12.182;2022-12-15T10:28:33;79006.00;;;12.90
12007;BMP180;6062;47.294;12.182;2022-12-15T10:33:45;78997.00;;;12.90
12007;BMP180;6062;47.294;12.182;2022-12-15T10:36:15;78999.00;;;13.00
12007;BMP180;6062;47.294;12.182;2022-12-15T10:38:44;78999.00;;;13.00
12007;BMP180;6062;47.294;12.182;2022-12-15T10:41:15;78998.00;;;13.00
12007;BMP180;6062;47.294;12.182;2022-12-15T10:43:47;79005.00;;;13.00
12007;BMP180;6062;47.294;12.182;2022-12-15T10:46:28;79002.00;;;13.00
12007;BMP180;6062;47.294;12.182;2022-12-15T10:49:20;78996.00;;;13.10
12007;BMP180;6062;47.294;12.182;2022-12-15T10:51:58;78991.00;;;13.10
12007;BMP180;6062;47.294;12.182;2022-12-15T10:54:35;78998.00;;;13.10
12007;BMP180;6062;47.294;12.182;2022-12-15T10:57:22;78999.00;;;13.10
12007;BMP180;6062;47.294;12.182;2022-12-15T10:59:48;78996.00;;;13.10
12007;BMP180;6062;47.294;12.182;2022-12-15T11:02:27;78989.00;;;13.00
12007;BMP180;6062;47.294;12.182;2022-12-15T11:10:21;78996.00;;;12.70
12007;BMP180;6062;47.294;12.182;2022-12-15T11:13:12;78989.00;;;12.60
12007;BMP180;6062;47.294;12.182;2022-12-15T11:15:51;78982.00;;;12.60
12007;BMP180;6062;47.294;12.182;2022-12-15T11:18:24;78980.00;;;12.50
12007;BMP180;6062;47.294;12.182;2022-12-15T11:21:16;78977.00;;;12.50
12007;BMP180;6062;47.294;12.182;2022-12-15T11:26:33;78978.00;;;12.50
12007;BMP180;6062;47.294;12.182;2022-12-15T11:29:14;78962.00;;;12.50
12007;BMP180;6062;47.294;12.182;2022-12-15T11:31:44;78968.00;;;12.50
12007;BMP180;6062;47.294;12.182;2022-12-15T11:34:25;78972.00;;;12.40
12007;BMP180;6062;47.294;12.182;2022-12-15T11:40:14;78969.00;;;12.10
12007;BMP180;6062;47.294;12.182;2022-12-15T11:48:15;78965.00;;;11.80
12007;BMP180;6062;47.294;12.182;2022-12-15T11:51:20;78966.00;;;11.70
12007;BMP180;6062;47.294;12.182;2022-12-15T12:00:19;78950.00;;;11.50
12007;BMP180;6062;47.294;12.182;2022-12-15T12:03:12;78941.00;;;11.50
12007;BMP180;6062;47.294;12.182;2022-12-15T12:06:16;78944.00;;;11.50
12007;BMP180;6062;47.294;12.182;2022-12-15T12:11:41;78940.00;;;11.60
12007;BMP180;6062;47.294;12.182;2022-12-15T12:14:40;78943.00;;;11.70
12007;BMP180;6062;47.294;12.182;2022-12-15T12:18:01;78931.00;;;11.80
12007;BMP180;6062;47.294;12.182;2022-12-15T12:20:50;78923.00;;;11.80
12007;BMP180;6062;47.294;12.182;2022-12-15T12:23:33;78921.00;;;11.80
12007;BMP180;6062;47.294;12.182;2022-12-15T12:31:42;78908.00;;;11.10
12007;BMP180;6062;47.294;12.182;2022-12-15T12:34:28;78917.00;;;11.00
12007;BMP180;6062;47.294;12.182;2022-12-15T12:37:12;78922.00;;;10.90
12007;BMP180;6062;47.294;12.182;2022-12-15T12:39:40;78910.00;;;10.80
12007;BMP180;6062;47.294;12.182;2022-12-15T12:42:38;78905.00;;;10.70
12007;BMP180;6062;47.294;12.182;2022-12-15T12:45:05;78901.00;;;10.60
12007;BMP180;6062;47.294;12.182;2022-12-15T12:47:41;78907.00;;;10.40
12007;BMP180;6062;47.294;12.182;2022-12-15T12:50:19;78907.00;;;10.30
12007;BMP180;6062;47.294;12.182;2022-12-15T12:52:56;78912.00;;;10.20
12007;BMP180;6062;47.294;12.182;2022-12-15T12:55:39;78915.00;;;10.10
12007;BMP180;6062;47.294;12.182;2022-12-15T12:58:33;78918.00;;;9.90
12007;BMP180;6062;47.294;12.182;2022-12-15T13:03:44;78911.00;;;9.50
12007;BMP180;6062;47.294;12.182;2022-12-15T13:14:26;78903.00;;;8.70
12007;BMP180;6062;47.294;12.182;2022-12-15T13:17:09;78905.00;;;8.50
12007;BMP180;6062;47.294;12.182;2022-12-15T13:22:34;78901.00;;;8.30
12007;BMP180;6062;47.294;12.182;2022-12-15T13:25:03;78891.00;;;8.20
12007;BMP180;6062;47.294;12.182;2022-12-15T13:27:51;78893.00;;;8.20
12007;BMP180;6062;47.294;12.182;2022-12-15T13:30:18;78891.00;;;8.10
12007;BMP180;6062;47.294;12.182;2022-12-15T13:32:46;78882.00;;;8.10
12007;BMP180;6062;47.294;12.182;2022-12-15T13:38:01;78885.00;;;8.00
12007;BMP180;6062;47.294;12.182;2022-12-15T13:48:52;78879.00;;;7.70
12007;BMP180;6062;47.294;12.182;2022-12-15T13:51:24;78870.00;;;7.50
12007;BMP180;6062;47.294;12.182;2022-12-15T13:56:43;78868.00;;;7.20
12007;BMP180;6062;47.294;12.182;2022-12-15T13:59:28;78868.00;;;7.10
12007;BMP180;6062;47.294;12.182;2022-12-15T14:01:55;78867.00;;;6.90
12007;BMP180;6062;47.294;12.182;2022-12-15T14:04:21;78872.00;;;6.70
12007;BMP180;6062;47.294;12.182;2022-12-15T14:06:55;78865.00;;;6.60
12007;BMP180;6062;47.294;12.182;2022-12-15T14:09:36;78865.00;;;6.50
12007;BMP180;6062;47.294;12.182;2022-12-15T14:12:07;78861.00;;;6.40
12007;BMP180;6062;47.294;12.182;2022-12-15T14:14:44;78866.00;;;6.40
12007;BMP180;6062;47.294;12.182;2022-12-15T14:17:16;78862.00;;;6.40
12007;BMP180;6062;47.294;12.182;2022-12-15T14:19:46;78867.00;;;6.40
12007;BMP180;6062;47.294;12.182;2022-12-15T14:22:28;78867.00;;;6.40
12007;BMP180;6062;47.294;12.182;2022-12-15T14:25:20;78863.00;;;6.40
12007;BMP180;6062;47.294;12.182;2022-12-15T14:27:47;78864.00;;;6.30
12007;BMP180;6062;47.294;12.182;2022-12-15T14:30:31;78867.00;;;6.30
12007;BMP180;6062;47.294;12.182;2022-12-15T14:33:07;78870.00;;;6.30
12007;BMP180;6062;47.294;12.182;2022-12-15T14:35:50;78866.00;;;6.20
12007;BMP180;6062;47.294;12.182;2022-12-15T14:38:24;78867.00;;;6.20
12007;BMP180;6062;47.294;12.182;2022-12-15T14:40:55;78851.00;;;6.10
12007;BMP180;6062;47.294;12.182;2022-12-15T14:43:35;78846.00;;;6.10
12007;BMP180;6062;47.294;12.182;2022-12-15T14:46:10;78844.00;;;6.00
12007;BMP180;6062;47.294;12.182;2022-12-15T14:48:52;78851.00;;;5.90
12007;BMP180;6062;47.294;12.182;2022-12-15T14:51:20;78849.00;;;5.80
12007;BMP180;6062;47.294;12.182;2022-12-15T14:53:52;78859.00;;;5.70
12007;BMP180;6062;47.294;12.182;2022-12-15T14:56:27;78840.00;;;5.70
12007;BMP180;6062;47.294;12.182;2022-12-15T14:59:16;78841.00;;;5.60
12007;BMP180;6062;47.294;12.182;2022-12-15T15:01:57;78843.00;;;5.50
12007;BMP180;6062;47.294;12.182;2022-12-15T15:04:31;78844.00;;;5.50
12007;BMP180;6062;47.294;12.182;2022-12-15T15:07:06;78848.00;;;5.50
12007;BMP180;6062;47.294;12.182;2022-12-15T15:09:39;78838.00;;;5.50
12007;BMP180;6062;47.294;12.182;2022-12-15T15:12:15;78845.00;;;5.50
12007;BMP180;6062;47.294;12.182;2022-12-15T15:14:58;78844.00;;;5.50
12007;BMP180;6062;47.294;12.182;2022-12-15T15:17:37;78837.00;;;5.50
12007;BMP180;6062;47.294;12.182;2022-12-15T15:20:17;78850.00;;;5.50
12007;BMP180;6062;47.294;12.182;2022-12-15T15:22:46;78853.00;;;5.50
12007;BMP180;6062;47.294;12.182;2022-12-15T15:25:39;78848.00;;;5.50
12007;BMP180;6062;47.294;12.182;2022-12-15T15:30:54;78850.00;;;5.60
12007;BMP180;6062;47.294;12.182;2022-12-15T15:33:23;78851.00;;;5.60
12007;BMP180;6062;47.294;12.182;2022-12-15T15:35:58;78847.00;;;5.70
12007;BMP180;6062;47.294;12.182;2022-12-15T15:38:32;78854.00;;;5.70
12007;BMP180;6062;47.294;12.182;2022-12-15T15:41:46;78849.00;;;5.70
12007;BMP180;6062;47.294;12.182;2022-12-15T15:43:48;78844.00;;;5.70
12007;BMP180;6062;47.294;12.182;2022-12-15T15:46:17;78845.00;;;5.80
12007;BMP180;6062;47.294;12.182;2022-12-15T15:48:51;78840.00;;;5.80
12007;BMP180;6062;47.294;12.182;2022-12-15T15:51:18;78835.00;;;5.80
12007;BMP180;6062;47.294;12.182;2022-12-15T15:53:45;78840.00;;;5.90
12007;BMP180;6062;47.294;12.182;2022-12-15T15:56:14;78839.00;;;5.90
12007;BMP180;6062;47.294;12.182;2022-12-15T15:58:41;78846.00;;;5.90
12007;BMP180;6062;47.294;12.182;2022-12-15T16:01:10;78837.00;;;6.00
12007;BMP180;6062;47.294;12.182;2022-12-15T16:03:36;78842.00;;;6.00
12007;BMP180;6062;47.294;12.182;2022-12-15T16:06:04;78848.00;;;6.00
12007;BMP180;6062;47.294;12.182;2022-12-15T16:08:34;78845.00;;;6.00
12007;BMP180;6062;47.294;12.182;2022-12-15T16:11:01;78843.00;;;6.00
12007;BMP180;6062;47.294;12.182;2022-12-15T16:13:27;78830.00;;;6.00
12007;BMP180;6062;47.294;12.182;2022-12-15T16:15:53;78832.00;;;6.00
12007;BMP180;6062;47.294;12.182;2022-12-15T16:18:20;78835.00;;;6.00
12007;BMP180;6062;47.294;12.182;2022-12-15T16:20:51;78824.00;;;6.10
12007;BMP180;6062;47.294;12.182;2022-12-15T16:23:25;78822.00;;;6.10
12007;BMP180;6062;47.294;12.182;2022-12-15T16:25:55;78812.00;;;6.10
12007;BMP180;6062;47.294;12.182;2022-12-15T16:28:25;78816.00;;;6.10
12007;BMP180;6062;47.294;12.182;2022-12-15T16:30:51;78810.00;;;6.10
12007;BMP180;6062;47.294;12.182;2022-12-15T16:33:17;78821.00;;;6.20
12007;BMP180;6062;47.294;12.182;2022-12-15T16:35:44;78810.00;;;6.20
12007;BMP180;6062;47.294;12.182;2022-12-15T16:38:26;78807.00;;;6.20